createdAt,value
2018-11-04T00:02:04.716Z,14.42
2018-11-04T00:04:33.598Z,14.46
2018-11-04T00:07:02.549Z,14.33
2018-11-04T00:09:31.389Z,14.44
2018-11-04T00:12:00.309Z,14.51
2018-11-04T00:14:29.233Z,14.49
2018-11-04T00:16:58.122Z,14.58
2018-11-04T00:19:26.986Z,14.59
2018-11-04T00:21:55.849Z,14.63
2018-11-04T00:24:24.818Z,14.66
2018-11-04T00:26:53.728Z,14.68
2018-11-04T00:29:22.670Z,14.64
2018-11-04T00:31:51.527Z,14.61
2018-11-04T00:34:20.500Z,14.54
2018-11-04T00:36:49.367Z,14.38
2018-11-04T00:39:18.292Z,14.26
2018-11-04T00:41:47.342Z,14.21
2018-11-04T00:44:16.185Z,14.01
2018-11-04T00:46:45.118Z,13.81
2018-11-04T00:49:14.041Z,13.56
2018-11-04T00:51:43.068Z,13.42
2018-11-04T00:54:11.989Z,13.30
2018-11-04T00:56:40.897Z,13.26
2018-11-04T00:59:09.809Z,13.26
2018-11-04T01:01:38.889Z,13.10
2018-11-04T01:04:07.692Z,13.14
2018-11-04T01:06:36.570Z,13.04
2018-11-04T01:09:06.792Z,12.89
2018-11-04T01:11:35.724Z,12.65
2018-11-04T01:14:04.816Z,12.66
2018-11-04T01:16:34.265Z,12.86
2018-11-04T01:19:03.164Z,12.96
2018-11-04T01:21:32.179Z,13.02
2018-11-04T01:24:01.301Z,12.91
2018-11-04T01:26:30.218Z,13.11
2018-11-04T01:28:59.097Z,13.04
2018-11-04T01:31:28.067Z,13.01
2018-11-04T01:33:56.941Z,12.85
2018-11-04T01:36:25.818Z,13.00
2018-11-04T01:38:54.828Z,13.00
2018-11-04T01:41:23.850Z,13.11
2018-11-04T01:43:52.674Z,12.86
2018-11-04T01:46:21.738Z,12.92
2018-11-04T01:48:50.579Z,13.02
2018-11-04T01:51:19.520Z,12.85
2018-11-04T01:53:48.404Z,12.85
2018-11-04T01:56:17.293Z,13.00
2018-11-04T01:58:46.211Z,12.89
2018-11-04T02:01:15.153Z,12.74
2018-11-04T02:03:44.011Z,12.64
2018-11-04T02:06:12.849Z,12.65
2018-11-04T02:08:41.805Z,12.57
2018-11-04T02:11:10.817Z,12.51
2018-11-04T02:13:39.728Z,12.54
2018-11-04T02:16:08.622Z,12.57
2018-11-04T02:18:37.521Z,12.43
2018-11-04T02:21:07.281Z,12.33
2018-11-04T02:23:36.335Z,12.42
2018-11-04T02:26:05.266Z,12.35
2018-11-04T02:28:34.249Z,12.57
2018-11-04T02:31:03.121Z,12.70
2018-11-04T02:33:32.086Z,12.68
2018-11-04T02:36:00.940Z,12.84
2018-11-04T02:38:29.802Z,12.73
2018-11-04T02:40:58.711Z,12.67
2018-11-04T02:43:27.566Z,12.74
2018-11-04T02:45:56.447Z,12.63
2018-11-04T02:48:25.413Z,12.72
2018-11-04T02:50:54.354Z,12.83
2018-11-04T02:53:23.244Z,12.94
2018-11-04T02:55:52.097Z,13.19
2018-11-04T02:58:21.057Z,13.17
2018-11-04T03:00:49.961Z,13.06
2018-11-04T03:03:18.810Z,13.01
2018-11-04T03:05:47.978Z,12.91
2018-11-04T03:08:16.850Z,12.69
2018-11-04T03:10:45.711Z,12.24
2018-11-04T03:13:14.566Z,12.03
2018-11-04T03:15:43.454Z,12.17
2018-11-04T03:18:12.343Z,11.74
2018-11-04T03:20:41.260Z,11.57
2018-11-04T03:23:10.190Z,11.68
2018-11-04T03:25:39.515Z,11.36
2018-11-04T03:28:09.362Z,10.85
2018-11-04T03:30:38.555Z,10.77
2018-11-04T03:33:08.187Z,10.66
2018-11-04T03:35:37.466Z,10.75
2018-11-04T03:38:06.837Z,10.67
2018-11-04T03:40:35.730Z,10.77
2018-11-04T03:43:04.840Z,10.87
2018-11-04T03:45:33.744Z,10.62
2018-11-04T03:48:02.630Z,10.79
2018-11-04T03:50:31.455Z,10.85
2018-11-04T03:53:05.243Z,10.66
2018-11-04T03:55:35.320Z,10.31
2018-11-04T03:58:04.508Z,10.36
2018-11-04T04:00:33.496Z,10.22
2018-11-04T04:03:02.407Z,10.18
2018-11-04T04:05:31.299Z,9.93
2018-11-04T04:08:00.193Z,9.92
2018-11-04T04:10:29.103Z,10.11
2018-11-04T04:12:58.159Z,10.07
2018-11-04T04:15:27.283Z,9.98
2018-11-04T04:17:56.107Z,9.93
2018-11-04T04:20:25.061Z,9.79
2018-11-04T04:22:54.148Z,9.89
2018-11-04T04:25:23.026Z,9.60
2018-11-04T04:27:51.873Z,9.60
2018-11-04T04:30:20.832Z,9.79
2018-11-04T04:32:49.689Z,9.52
2018-11-04T04:35:18.770Z,9.85
2018-11-04T04:37:47.754Z,9.83
2018-11-04T04:40:16.604Z,9.84
2018-11-04T04:42:45.425Z,9.60
2018-11-04T04:45:14.392Z,9.47
2018-11-04T04:47:43.290Z,9.43
2018-11-04T04:50:12.179Z,9.64
2018-11-04T04:52:41.106Z,9.28
2018-11-04T04:55:10.156Z,9.60
2018-11-04T04:57:38.972Z,9.74
2018-11-04T05:00:08.181Z,9.70
2018-11-04T05:02:37.089Z,9.68
2018-11-04T05:05:06.477Z,9.56
2018-11-04T05:07:35.412Z,9.55
2018-11-04T05:10:04.506Z,9.47
2018-11-04T05:12:33.353Z,9.51
2018-11-04T05:15:02.265Z,10.28
2018-11-04T05:17:31.132Z,11.47
2018-11-04T05:20:00.069Z,12.42
2018-11-04T05:22:29.005Z,12.93
2018-11-04T05:24:58.619Z,13.30
2018-11-04T05:27:27.510Z,13.45
2018-11-04T05:29:56.406Z,13.71
2018-11-04T05:32:25.282Z,14.01
2018-11-04T05:34:54.169Z,14.16
2018-11-04T05:37:23.116Z,14.39
2018-11-04T05:39:52.035Z,14.57
2018-11-04T05:42:21.131Z,15.03
2018-11-04T05:44:50.004Z,15.36
2018-11-04T05:47:18.907Z,15.03
2018-11-04T05:49:48.031Z,14.61
2018-11-04T05:52:16.954Z,14.18
2018-11-04T05:54:45.824Z,13.90
2018-11-04T05:57:14.986Z,13.47
2018-11-04T05:59:43.855Z,13.36
2018-11-04T06:02:12.774Z,13.24
2018-11-04T06:04:41.697Z,13.11
2018-11-04T06:07:10.617Z,13.13
2018-11-04T06:09:39.501Z,12.95
2018-11-04T06:12:08.681Z,13.02
2018-11-04T06:14:37.676Z,12.96
2018-11-04T06:17:06.576Z,12.89
2018-11-04T06:19:35.502Z,12.78
2018-11-04T06:22:04.385Z,12.81
2018-11-04T06:24:33.376Z,12.84
2018-11-04T06:27:02.413Z,12.84
2018-11-04T06:29:31.404Z,12.83
2018-11-04T06:32:00.645Z,12.91
2018-11-04T06:34:29.794Z,12.95
2018-11-04T06:36:58.690Z,13.00
2018-11-04T06:39:27.607Z,13.06
2018-11-04T06:41:56.542Z,13.08
2018-11-04T06:44:25.496Z,13.16
2018-11-04T06:46:54.597Z,13.25
2018-11-04T06:49:23.497Z,13.34
2018-11-04T06:51:52.444Z,13.36
2018-11-04T06:54:21.581Z,13.51
2018-11-04T06:56:50.679Z,13.55
2018-11-04T06:59:19.689Z,13.36
2018-11-04T07:01:48.661Z,13.53
2018-11-04T07:04:21.889Z,13.64
2018-11-04T07:06:50.855Z,13.48
2018-11-04T07:09:19.797Z,13.49
2018-11-04T07:11:49.575Z,13.65
2018-11-04T07:14:19.155Z,13.72
2018-11-04T07:16:48.172Z,13.80
2018-11-04T07:19:17.567Z,13.53
2018-11-04T07:21:46.562Z,13.63
2018-11-04T07:24:15.540Z,13.82
2018-11-04T07:26:44.530Z,13.92
2018-11-04T07:29:13.597Z,13.68
2018-11-04T07:31:42.582Z,13.93
2018-11-04T07:34:11.783Z,14.06
2018-11-04T07:36:40.878Z,14.07
2018-11-04T07:39:12.606Z,13.87
2018-11-04T07:41:41.622Z,14.13
2018-11-04T07:44:10.573Z,14.23
2018-11-04T07:46:39.557Z,14.12
2018-11-04T07:49:08.571Z,14.01
2018-11-04T07:51:37.682Z,13.95
2018-11-04T07:54:06.894Z,14.11
2018-11-04T07:56:35.828Z,14.34
2018-11-04T07:59:05.017Z,14.29
2018-11-04T08:01:34.165Z,14.40
2018-11-04T08:04:03.195Z,13.79
2018-11-04T08:06:32.211Z,13.57
2018-11-04T08:09:01.295Z,13.71
2018-11-04T08:11:30.347Z,14.05
2018-11-04T08:13:59.268Z,14.20
2018-11-04T08:16:28.250Z,14.39
2018-11-04T08:18:57.133Z,14.16
2018-11-04T08:21:26.344Z,14.24
2018-11-04T08:23:55.525Z,14.38
2018-11-04T08:26:24.477Z,14.65
2018-11-04T08:28:53.544Z,14.73
2018-11-04T08:31:22.576Z,14.78
2018-11-04T08:33:51.525Z,14.62
2018-11-04T08:36:20.533Z,14.57
2018-11-04T08:38:49.479Z,14.75
2018-11-04T08:41:18.523Z,14.86
2018-11-04T08:43:47.483Z,14.78
2018-11-04T08:46:16.433Z,14.86
2018-11-04T08:48:45.363Z,14.63
2018-11-04T08:51:14.546Z,14.94
2018-11-04T08:53:43.504Z,15.03
2018-11-04T08:56:12.621Z,15.20
2018-11-04T08:58:41.544Z,15.34
2018-11-04T09:01:10.598Z,15.28
2018-11-04T09:03:39.548Z,15.42
2018-11-04T09:06:08.522Z,15.62
2018-11-04T09:08:37.495Z,15.64
2018-11-04T09:11:06.717Z,15.75
2018-11-04T09:13:35.869Z,15.85
2018-11-04T09:16:05.871Z,15.91
2018-11-04T09:18:34.832Z,16.03
2018-11-04T09:21:03.832Z,16.12
2018-11-04T09:23:32.895Z,16.20
2018-11-04T09:26:01.880Z,16.24
2018-11-04T09:28:31.073Z,16.16
2018-11-04T09:31:00.122Z,16.16
2018-11-04T09:33:29.093Z,16.40
2018-11-04T09:35:58.258Z,16.41
2018-11-04T09:38:27.101Z,16.29
2018-11-04T09:40:55.972Z,16.51
2018-11-04T09:43:24.935Z,16.70
2018-11-04T09:45:54.024Z,16.81
2018-11-04T09:48:23.081Z,16.81
2018-11-04T09:50:52.145Z,16.94
2018-11-04T09:53:21.121Z,16.94
2018-11-04T09:55:50.169Z,17.09
2018-11-04T09:58:19.196Z,17.18
2018-11-04T10:00:48.199Z,17.15
2018-11-04T10:03:17.282Z,17.11
2018-11-04T10:05:46.314Z,16.90
2018-11-04T10:08:15.439Z,16.88
2018-11-04T10:10:44.389Z,16.73
2018-11-04T10:13:13.502Z,16.77
2018-11-04T10:15:42.512Z,16.96
2018-11-04T10:18:11.385Z,16.96
2018-11-04T10:20:40.929Z,16.91
2018-11-04T10:23:09.545Z,16.79
2018-11-04T10:25:38.627Z,16.88
2018-11-04T10:28:07.647Z,17.11
2018-11-04T10:30:36.670Z,16.96
2018-11-04T10:33:05.758Z,17.10
2018-11-04T10:35:34.847Z,17.21
2018-11-04T10:38:03.760Z,17.03
2018-11-04T10:40:32.790Z,16.91
2018-11-04T10:43:01.924Z,17.04
2018-11-04T10:45:30.946Z,17.13
2018-11-04T10:47:59.877Z,17.22
2018-11-04T10:50:28.879Z,17.10
2018-11-04T10:52:57.843Z,17.15
2018-11-04T10:55:26.794Z,17.14
2018-11-04T10:57:55.740Z,17.22
2018-11-04T11:00:29.886Z,17.18
2018-11-04T11:02:58.927Z,17.31
2018-11-04T11:05:27.956Z,17.41
2018-11-04T11:07:56.973Z,17.50
2018-11-04T11:10:26.117Z,17.54
2018-11-04T11:12:55.131Z,17.66
2018-11-04T11:15:23.967Z,17.68
2018-11-04T11:17:53.027Z,17.75
2018-11-04T11:20:22.060Z,17.77
2018-11-04T11:22:51.115Z,17.80
2018-11-04T11:25:20.113Z,17.86
2018-11-04T11:27:49.173Z,17.90
2018-11-04T11:30:18.332Z,17.92
2018-11-04T11:32:47.302Z,18.02
2018-11-04T11:35:16.214Z,18.08
2018-11-04T11:37:45.207Z,18.11
2018-11-04T11:40:14.206Z,18.24
2018-11-04T11:42:43.114Z,18.11
2018-11-04T11:45:12.128Z,18.08
2018-11-04T11:47:41.058Z,18.04
2018-11-04T11:50:10.184Z,18.11
2018-11-04T11:52:39.347Z,18.15
2018-11-04T11:55:08.587Z,18.16
2018-11-04T11:57:37.808Z,18.23
2018-11-04T12:00:08.395Z,18.20
2018-11-04T12:02:38.019Z,18.14
2018-11-04T12:05:07.343Z,18.17
2018-11-04T12:07:36.343Z,18.12
2018-11-04T12:10:06.149Z,18.20
2018-11-04T12:12:35.342Z,18.26
2018-11-04T12:15:04.748Z,18.25
2018-11-04T12:17:33.680Z,18.36
2018-11-04T12:20:02.884Z,18.31
2018-11-04T12:22:31.805Z,18.26
2018-11-04T12:25:00.799Z,18.29
2018-11-04T12:27:29.814Z,18.42
2018-11-04T12:29:58.901Z,18.43
2018-11-04T12:32:27.966Z,18.41
2018-11-04T12:34:57.293Z,18.42
2018-11-04T12:37:26.249Z,18.53
2018-11-04T12:39:55.300Z,18.57
2018-11-04T12:42:24.466Z,18.65
2018-11-04T12:44:53.365Z,18.71
2018-11-04T12:47:22.359Z,18.80
2018-11-04T12:49:51.344Z,18.67
2018-11-04T12:52:20.440Z,18.78
2018-11-04T12:54:49.429Z,18.64
2018-11-04T12:57:18.443Z,18.69
2018-11-04T12:59:47.425Z,18.65
2018-11-04T13:02:16.467Z,18.64
2018-11-04T13:04:45.369Z,18.62
2018-11-04T13:07:14.310Z,18.65
2018-11-04T13:09:43.317Z,18.59
2018-11-04T13:12:12.433Z,18.59
2018-11-04T13:14:41.586Z,18.55
2018-11-04T13:17:10.600Z,18.51
2018-11-04T13:19:39.582Z,18.65
2018-11-04T13:22:08.627Z,18.57
2018-11-04T13:24:37.600Z,18.51
2018-11-04T13:27:06.692Z,18.54
2018-11-04T13:29:35.581Z,18.44
2018-11-04T13:32:04.584Z,18.50
2018-11-04T13:34:33.659Z,18.34
2018-11-04T13:37:03.808Z,18.26
2018-11-04T13:39:32.833Z,18.28
2018-11-04T13:42:01.917Z,18.25
2018-11-04T13:44:30.890Z,18.33
2018-11-04T13:47:00.047Z,18.27
2018-11-04T13:49:29.237Z,18.25
2018-11-04T13:51:58.081Z,18.23
2018-11-04T13:54:27.060Z,18.23
2018-11-04T13:56:56.125Z,18.22
2018-11-04T13:59:25.190Z,18.20
2018-11-04T14:01:54.270Z,18.21
2018-11-04T14:04:23.379Z,18.16
2018-11-04T14:06:52.321Z,18.12
2018-11-04T14:09:21.313Z,18.06
2018-11-04T14:11:50.252Z,18.17
2018-11-04T14:14:19.220Z,18.11
2018-11-04T14:16:48.207Z,18.14
2018-11-04T14:19:17.082Z,18.22
2018-11-04T14:21:46.017Z,18.15
2018-11-04T14:24:15.102Z,18.05
2018-11-04T14:26:44.088Z,17.96
2018-11-04T14:29:13.101Z,17.99
2018-11-04T14:31:42.189Z,18.00
2018-11-04T14:34:11.323Z,18.04
2018-11-04T14:36:40.296Z,18.01
2018-11-04T14:39:10.273Z,18.05
2018-11-04T14:41:39.209Z,17.94
2018-11-04T14:44:08.273Z,18.00
2018-11-04T14:46:37.255Z,17.87
2018-11-04T14:49:06.382Z,17.85
2018-11-04T14:51:35.378Z,17.96
2018-11-04T14:54:04.352Z,17.90
2018-11-04T14:56:33.360Z,17.85
2018-11-04T14:59:02.304Z,17.99
2018-11-04T15:01:31.356Z,18.00
2018-11-04T15:04:00.298Z,17.99
2018-11-04T15:06:29.315Z,17.95
2018-11-04T15:09:00.007Z,17.92
2018-11-04T15:11:29.637Z,17.73
2018-11-04T15:14:01.384Z,17.84
2018-11-04T15:16:30.584Z,17.96
2018-11-04T15:18:59.515Z,17.81
2018-11-04T15:21:28.349Z,17.71
2018-11-04T15:23:57.301Z,17.73
2018-11-04T15:26:26.342Z,17.64
2018-11-04T15:28:55.328Z,17.52
2018-11-04T15:31:24.217Z,17.61
2018-11-04T15:33:53.090Z,17.76
2018-11-04T15:36:22.108Z,17.76
2018-11-04T15:38:51.094Z,17.51
2018-11-04T15:41:20.029Z,17.55
2018-11-04T15:43:48.965Z,17.40
2018-11-04T15:46:18.372Z,17.35
2018-11-04T15:48:47.287Z,17.25
2018-11-04T15:51:16.249Z,17.28
2018-11-04T15:53:45.171Z,17.20
2018-11-04T15:56:14.060Z,17.25
2018-11-04T15:58:42.887Z,17.49
2018-11-04T16:01:11.994Z,17.53
2018-11-04T16:03:41.136Z,17.42
2018-11-04T16:06:10.097Z,17.26
2018-11-04T16:08:39.425Z,17.13
2018-11-04T16:11:08.306Z,17.08
2018-11-04T16:13:37.200Z,16.93
2018-11-04T16:16:06.636Z,17.09
2018-11-04T16:18:35.761Z,17.08
2018-11-04T16:21:04.840Z,16.93
2018-11-04T16:23:33.869Z,16.99
2018-11-04T16:26:02.813Z,16.90
2018-11-04T16:28:31.702Z,16.76
2018-11-04T16:31:00.649Z,16.83
2018-11-04T16:33:29.499Z,16.75
2018-11-04T16:35:59.310Z,16.69
2018-11-04T16:38:28.328Z,16.75
2018-11-04T16:40:57.361Z,16.56
2018-11-04T16:43:26.365Z,16.60
2018-11-04T16:45:55.371Z,16.70
2018-11-04T16:48:24.313Z,16.72
2018-11-04T16:50:53.237Z,16.42
2018-11-04T16:53:22.174Z,16.43
2018-11-04T16:55:51.193Z,16.22
2018-11-04T16:58:20.213Z,16.14
2018-11-04T17:00:49.168Z,16.19
2018-11-04T17:03:18.094Z,15.98
2018-11-04T17:05:47.018Z,15.93
2018-11-04T17:08:15.966Z,15.93
2018-11-04T17:10:45.345Z,15.88
2018-11-04T17:13:14.423Z,15.93
2018-11-04T17:15:43.324Z,15.95
2018-11-04T17:18:12.500Z,15.98
2018-11-04T17:20:41.396Z,15.95
2018-11-04T17:23:10.495Z,16.04
2018-11-04T17:25:39.413Z,15.95
2018-11-04T17:28:08.292Z,15.73
2018-11-04T17:30:37.368Z,15.62
2018-11-04T17:33:06.313Z,15.71
2018-11-04T17:35:35.398Z,15.62
2018-11-04T17:38:04.732Z,15.60
2018-11-04T17:40:33.760Z,15.73
2018-11-04T17:43:02.901Z,15.55
2018-11-04T17:45:31.872Z,15.61
2018-11-04T17:48:00.818Z,15.59
2018-11-04T17:50:29.806Z,15.55
2018-11-04T17:52:58.819Z,15.47
2018-11-04T17:55:27.930Z,15.36
2018-11-04T17:57:56.871Z,15.34
2018-11-04T18:00:25.782Z,15.16
2018-11-04T18:02:54.735Z,15.08
2018-11-04T18:05:23.655Z,15.26
2018-11-04T18:07:52.593Z,15.24
2018-11-04T18:10:21.679Z,15.21
2018-11-04T18:12:50.698Z,15.26
2018-11-04T18:15:19.849Z,15.03
2018-11-04T18:17:48.811Z,14.85
2018-11-04T18:20:17.824Z,14.51
2018-11-04T18:22:46.693Z,14.38
2018-11-04T18:25:15.600Z,14.57
2018-11-04T18:27:44.565Z,14.42
2018-11-04T18:30:15.038Z,14.36
2018-11-04T18:32:44.533Z,14.29
2018-11-04T18:35:13.385Z,14.32
2018-11-04T18:37:42.603Z,14.40
2018-11-04T18:40:13.422Z,14.22
2018-11-04T18:42:42.739Z,14.19
2018-11-04T18:45:12.904Z,14.10
2018-11-04T18:47:41.858Z,14.15
2018-11-04T18:50:11.779Z,14.02
2018-11-04T18:52:40.817Z,14.05
2018-11-04T18:55:11.088Z,14.21
2018-11-04T18:57:40.232Z,14.10
2018-11-04T19:00:11.983Z,13.82
2018-11-04T19:02:40.943Z,14.10
2018-11-04T19:05:10.926Z,14.22
2018-11-04T19:07:39.938Z,14.36
2018-11-04T19:10:11.337Z,14.21
2018-11-04T19:12:40.210Z,14.33
2018-11-04T19:15:09.525Z,14.21
2018-11-04T19:17:38.583Z,14.11
2018-11-04T19:20:09.255Z,14.31
2018-11-04T19:22:38.775Z,14.15
2018-11-04T19:25:08.785Z,14.06
2018-11-04T19:27:37.705Z,14.22
2018-11-04T19:30:08.583Z,14.14
2018-11-04T19:32:37.574Z,14.21
2018-11-04T19:35:08.847Z,14.07
2018-11-04T19:37:37.922Z,13.92
2018-11-04T19:40:08.281Z,13.86
2018-11-04T19:42:37.371Z,14.00
2018-11-04T19:45:06.566Z,13.91
2018-11-04T19:47:35.481Z,14.00
2018-11-04T19:50:04.648Z,13.86
2018-11-04T19:52:33.625Z,13.91
2018-11-04T19:55:02.549Z,13.75
2018-11-04T19:57:31.863Z,13.73
2018-11-04T20:00:04.431Z,13.64
2018-11-04T20:02:33.286Z,13.95
2018-11-04T20:05:02.286Z,13.78
2018-11-04T20:07:31.279Z,13.70
2018-11-04T20:10:00.460Z,13.77
2018-11-04T20:12:34.550Z,13.69
2018-11-04T20:15:03.542Z,13.67
2018-11-04T20:17:32.538Z,13.62
2018-11-04T20:20:08.699Z,13.64
2018-11-04T20:22:37.456Z,13.62
2018-11-04T20:25:12.080Z,13.46
2018-11-04T20:27:41.000Z,13.61
2018-11-04T20:30:11.724Z,13.57
2018-11-04T20:32:45.637Z,13.60
2018-11-04T20:35:15.640Z,13.58
2018-11-04T20:37:45.052Z,13.56
2018-11-04T20:40:19.173Z,13.80
2018-11-04T20:42:48.101Z,13.77
2018-11-04T20:45:17.033Z,13.76
2018-11-04T20:47:51.117Z,13.97
2018-11-04T20:50:25.248Z,13.98
2018-11-04T20:52:54.161Z,13.77
2018-11-04T20:55:23.165Z,13.65
2018-11-04T20:57:57.789Z,13.73
2018-11-04T21:00:27.128Z,13.73
2018-11-04T21:02:56.428Z,13.91
2018-11-04T21:05:25.352Z,13.78
2018-11-04T21:07:54.626Z,13.65
2018-11-04T21:10:23.625Z,13.77
2018-11-04T21:12:52.566Z,13.65
2018-11-04T21:15:21.562Z,13.75
2018-11-04T21:17:50.565Z,13.75
2018-11-04T21:20:19.427Z,13.76
2018-11-04T21:22:48.333Z,13.71
2018-11-04T21:25:17.225Z,13.72
2018-11-04T21:27:46.200Z,13.71
2018-11-04T21:30:15.071Z,13.76
2018-11-04T21:32:44.537Z,13.68
2018-11-04T21:35:13.481Z,13.74
2018-11-04T21:37:42.405Z,13.74
2018-11-04T21:40:11.409Z,13.73
2018-11-04T21:42:40.593Z,13.59
2018-11-04T21:45:11.505Z,13.74
2018-11-04T21:47:40.539Z,13.94
2018-11-04T21:50:10.391Z,13.65
2018-11-04T21:52:39.374Z,13.74
2018-11-04T21:55:10.397Z,13.71
2018-11-04T21:57:39.999Z,13.73
2018-11-04T22:00:10.776Z,13.78
2018-11-04T22:02:40.022Z,13.55
2018-11-04T22:05:09.537Z,13.57
2018-11-04T22:07:38.664Z,13.74
2018-11-04T22:10:10.068Z,13.66
2018-11-04T22:12:39.273Z,13.79
2018-11-04T22:15:08.416Z,13.91
2018-11-04T22:17:37.735Z,13.97
2018-11-04T22:20:07.694Z,13.74
2018-11-04T22:22:36.633Z,13.68
2018-11-04T22:25:06.206Z,13.62
2018-11-04T22:27:36.196Z,13.61
2018-11-04T22:30:05.990Z,13.65
2018-11-04T22:32:35.051Z,13.77
2018-11-04T22:35:04.345Z,13.75
2018-11-04T22:37:33.221Z,13.60
2018-11-04T22:40:02.087Z,13.60
2018-11-04T22:42:31.381Z,13.38
2018-11-04T22:45:00.243Z,13.14
2018-11-04T22:47:29.315Z,13.19
2018-11-04T22:49:58.218Z,13.23
2018-11-04T22:52:27.215Z,13.28
2018-11-04T22:54:56.307Z,13.19
2018-11-04T22:57:25.228Z,13.25
2018-11-04T22:59:54.169Z,13.38
2018-11-04T23:02:23.208Z,13.47
2018-11-04T23:04:57.334Z,13.38
2018-11-04T23:07:26.347Z,13.45
2018-11-04T23:09:55.276Z,13.56
2018-11-04T23:12:24.305Z,13.58
2018-11-04T23:14:53.193Z,13.62
2018-11-04T23:17:22.144Z,13.43
2018-11-04T23:19:51.037Z,13.66
2018-11-04T23:22:20.109Z,13.69
2018-11-04T23:24:49.141Z,13.73
2018-11-04T23:27:18.036Z,13.61
2018-11-04T23:29:46.894Z,13.68
2018-11-04T23:32:15.806Z,13.66
2018-11-04T23:34:44.662Z,13.53
2018-11-04T23:37:13.643Z,13.57
2018-11-04T23:39:42.566Z,13.30
2018-11-04T23:42:11.573Z,13.35
2018-11-04T23:44:40.532Z,13.43
2018-11-04T23:47:09.438Z,13.53
2018-11-04T23:49:38.551Z,13.58
2018-11-04T23:52:07.510Z,13.54
2018-11-04T23:54:36.423Z,13.62
2018-11-04T23:57:05.473Z,13.68
2018-11-04T23:59:34.352Z,13.55
